Time;durP1;ratioP1;P1;durP2;ratioP2;P2;SDS_P1;SDS_P2;PMS_P1;PMS_P2;Temp;Humidity;BMP_temperature;BMP_pressure;BME280_temperature;BME280_humidity;BME280_pressure;Samples;Min_cycle;Max_cycle;Signal;HPM_P1;HPM_P2
2023/04/20 00:00:10;;;;;;;7.22;2.83;;;6.70;87.40;;;;;;4926340;28;20024;-63
2023/04/20 00:02:38;;;;;;;5.80;2.65;;;6.70;86.50;;;;;;4927970;28;20031;-64
2023/04/20 00:05:06;;;;;;;5.82;2.47;;;6.80;86.70;;;;;;4925357;28;20043;-66
2023/04/20 00:07:32;;;;;;;6.10;3.20;;;6.80;86.20;;;;;;4927783;29;20039;-63
2023/04/20 00:09:58;;;;;;;3.35;2.17;;;6.80;85.40;;;;;;4929363;28;20028;-64
2023/04/20 00:12:23;;;;;;;5.50;2.30;;;6.80;86.40;;;;;;4925233;28;20027;-63
2023/04/20 00:14:49;;;;;;;7.00;2.50;;;6.80;87.30;;;;;;4928319;28;20034;-64
2023/04/20 00:17:14;;;;;;;6.05;2.50;;;6.80;86.90;;;;;;4916583;28;20052;-64
2023/04/20 00:19:40;;;;;;;4.18;2.13;;;6.80;86.80;;;;;;4929319;28;20032;-62
2023/04/20 00:22:06;;;;;;;3.78;2.08;;;6.70;87.00;;;;;;4917977;28;20035;-63
2023/04/20 00:24:31;;;;;;;5.50;2.45;;;6.70;89.10;;;;;;4927980;28;20027;-64
2023/04/20 00:26:57;;;;;;;5.43;2.30;;;6.70;87.10;;;;;;4913823;28;20505;-64
2023/04/20 00:29:22;;;;;;;3.28;1.98;;;6.70;86.90;;;;;;4931027;28;20103;-64
2023/04/20 00:31:48;;;;;;;9.82;2.53;;;6.70;87.10;;;;;;4911985;28;20032;-64
2023/04/20 00:34:14;;;;;;;3.78;2.20;;;6.80;86.70;;;;;;4930410;29;20027;-64
2023/04/20 00:36:40;;;;;;;7.22;2.42;;;6.80;86.30;;;;;;4931077;29;20093;-64
2023/04/20 00:39:06;;;;;;;3.55;1.85;;;6.80;87.30;;;;;;4932185;29;20028;-64
2023/04/20 00:41:31;;;;;;;4.53;2.35;;;6.80;87.20;;;;;;4928921;29;20024;-62
2023/04/20 00:43:57;;;;;;;6.53;2.40;;;6.80;87.30;;;;;;4932129;29;20031;-64
2023/04/20 00:46:22;;;;;;;7.65;2.47;;;6.80;87.70;;;;;;4932670;29;20047;-64
2023/04/20 00:48:50;;;;;;;6.43;2.83;;;6.70;88.80;;;;;;4931852;28;20417;-64
2023/04/20 00:51:17;;;;;;;5.15;2.42;;;6.70;88.50;;;;;;4931449;29;20143;-64
2023/04/20 00:53:43;;;;;;;7.93;2.75;;;6.80;87.30;;;;;;4930798;29;20533;-63
2023/04/20 00:56:12;;;;;;;4.60;2.42;;;6.80;87.70;;;;;;4931133;29;20024;-67
2023/04/20 00:58:37;;;;;;;15.13;3.05;;;6.80;87.90;;;;;;4928762;29;20035;-63
2023/04/20 01:01:04;;;;;;;8.10;2.40;;;6.80;88.20;;;;;;4927373;29;20040;-64
2023/04/20 01:03:30;;;;;;;3.53;2.20;;;6.80;88.20;;;;;;4929174;29;20019;-62
2023/04/20 01:05:56;;;;;;;5.40;2.65;;;6.80;88.50;;;;;;4927564;29;20040;-62
2023/04/20 01:08:26;;;;;;;5.55;2.90;;;6.70;90.00;;;;;;4924582;29;20024;-64
2023/04/20 01:10:52;;;;;;;9.02;2.70;;;6.70;89.50;;;;;;4927336;29;20027;-65
2023/04/20 01:13:17;;;;;;;8.23;3.00;;;6.70;90.00;;;;;;4927820;29;20024;-64
2023/04/20 01:15:43;;;;;;;7.57;2.20;;;6.70;90.00;;;;;;4909877;28;20103;-63
2023/04/20 01:18:08;;;;;;;7.22;2.45;;;6.70;90.40;;;;;;4942500;28;20036;-64
2023/04/20 01:20:34;;;;;;;8.35;2.78;;;6.70;90.70;;;;;;4927037;29;20052;-63
2023/04/20 01:23:00;;;;;;;8.25;4.20;;;6.60;90.20;;;;;;4924031;29;20054;-64
2023/04/20 01:25:25;;;;;;;4.70;2.45;;;6.70;90.10;;;;;;4927054;28;20016;-64
2023/04/20 01:27:51;;;;;;;6.88;2.33;;;6.80;90.10;;;;;;4903963;29;20109;-64
2023/04/20 01:30:16;;;;;;;6.65;2.33;;;6.80;89.60;;;;;;4930716;29;20031;-63
2023/04/20 01:32:43;;;;;;;8.48;2.85;;;6.80;90.00;;;;;;4930358;29;20036;-63
2023/04/20 01:35:09;;;;;;;7.85;2.80;;;6.80;90.20;;;;;;4931742;29;20023;-64
2023/04/20 01:37:35;;;;;;;6.43;2.63;;;6.80;90.30;;;;;;4930234;29;20024;-64
2023/04/20 01:40:02;;;;;;;10.60;3.17;;;6.80;90.60;;;;;;4914008;28;20039;-66
2023/04/20 01:42:28;;;;;;;4.45;2.90;;;6.90;90.50;;;;;;4928615;29;20118;-64
2023/04/20 01:44:54;;;;;;;6.15;2.75;;;6.90;90.70;;;;;;4930652;28;20445;-63
2023/04/20 01:47:19;;;;;;;6.57;3.00;;;6.90;90.80;;;;;;4929445;29;20032;-63
2023/04/20 01:49:45;;;;;;;6.90;2.42;;;6.90;90.90;;;;;;4928185;29;20563;-67
2023/04/20 01:52:10;;;;;;;5.35;2.67;;;6.90;91.10;;;;;;4924471;28;20111;-66
2023/04/20 01:54:36;;;;;;;9.75;2.88;;;6.80;91.30;;;;;;4929371;28;20031;-65
2023/04/20 01:57:02;;;;;;;11.35;3.17;;;6.80;91.40;;;;;;4929424;28;20036;-67
2023/04/20 01:59:27;;;;;;;5.25;2.80;;;6.80;91.60;;;;;;4930048;29;20038;-62
2023/04/20 02:01:53;;;;;;;15.95;3.63;;;6.80;92.20;;;;;;4928703;28;20047;-65
2023/04/20 02:04:20;;;;;;;4.75;2.42;;;6.80;91.80;;;;;;4928979;29;20035;-65
2023/04/20 02:06:45;;;;;;;4.43;2.80;;;6.80;92.10;;;;;;4925567;29;20094;-64
2023/04/20 02:09:11;;;;;;;5.68;3.10;;;6.80;92.30;;;;;;4925281;28;20054;-65
2023/04/20 02:11:37;;;;;;;5.75;2.90;;;6.80;92.30;;;;;;4925827;29;20074;-65
2023/04/20 02:14:02;;;;;;;4.97;2.75;;;6.80;92.40;;;;;;4925302;28;20456;-63
2023/04/20 02:16:29;;;;;;;7.88;3.20;;;6.80;92.40;;;;;;4927067;28;20059;-64
2023/04/20 02:18:55;;;;;;;5.95;2.70;;;6.80;92.60;;;;;;4923964;29;20028;-65
2023/04/20 02:21:21;;;;;;;7.20;3.45;;;6.70;92.90;;;;;;4919335;28;20028;-65
2023/04/20 02:23:46;;;;;;;6.25;3.10;;;6.70;92.90;;;;;;4909496;28;21017;-64
2023/04/20 02:26:12;;;;;;;6.15;3.28;;;6.70;92.90;;;;;;4927671;28;20043;-62
2023/04/20 02:28:37;;;;;;;4.07;2.72;;;6.70;93.00;;;;;;4892945;28;20054;-64
2023/04/20 02:31:03;;;;;;;4.15;2.58;;;6.80;92.80;;;;;;4917004;28;20031;-64
2023/04/20 02:33:30;;;;;;;9.45;2.50;;;6.70;93.00;;;;;;4923187;29;21238;-64
2023/04/20 02:35:56;;;;;;;8.35;3.47;;;6.70;93.20;;;;;;4921338;28;20123;-63
2023/04/20 02:38:21;;;;;;;9.38;3.38;;;6.70;93.50;;;;;;4921026;29;20102;-65
2023/04/20 02:40:47;;;;;;;8.52;2.70;;;6.60;93.70;;;;;;4921226;28;20042;-64
2023/04/20 02:43:13;;;;;;;4.90;2.92;;;6.60;93.60;;;;;;4921300;29;20079;-65
2023/04/20 02:45:38;;;;;;;8.32;2.88;;;6.60;93.80;;;;;;4924184;28;20141;-64
2023/04/20 02:48:04;;;;;;;5.07;2.97;;;6.60;93.80;;;;;;4919658;28;20046;-64
2023/04/20 02:50:30;;;;;;;4.55;2.80;;;6.60;93.90;;;;;;4921031;29;21645;-64
2023/04/20 02:52:56;;;;;;;8.77;3.28;;;6.60;93.80;;;;;;4920250;29;20036;-65
2023/04/20 02:55:21;;;;;;;4.75;2.60;;;6.70;93.90;;;;;;4921725;28;20029;-63
2023/04/20 02:57:47;;;;;;;6.18;2.20;;;6.80;93.70;;;;;;4927748;28;20020;-64
2023/04/20 03:00:12;;;;;;;7.25;3.38;;;6.80;93.90;;;;;;4913381;28;20038;-65
2023/04/20 03:02:38;;;;;;;7.13;2.83;;;6.80;94.00;;;;;;4942751;28;20032;-65
2023/04/20 03:05:04;;;;;;;6.32;2.92;;;6.80;93.70;;;;;;4928648;29;20023;-64
2023/04/20 03:07:30;;;;;;;7.38;3.13;;;6.80;94.10;;;;;;4925982;29;20036;-64
2023/04/20 03:09:56;;;;;;;4.50;2.80;;;6.80;94.40;;;;;;4928700;29;20024;-64
2023/04/20 03:12:21;;;;;;;13.75;3.13;;;6.70;94.20;;;;;;4925805;28;20035;-64
2023/04/20 03:14:47;;;;;;;6.53;3.05;;;6.70;94.00;;;;;;4927337;28;20032;-64
2023/04/20 03:17:13;;;;;;;13.05;3.35;;;6.70;94.20;;;;;;4926748;28;20038;-65
2023/04/20 03:19:38;;;;;;;5.45;3.00;;;6.70;94.10;;;;;;4927615;28;20162;-65
2023/04/20 03:22:04;;;;;;;3.83;2.67;;;6.60;94.30;;;;;;4911556;28;20036;-64
2023/04/20 03:24:29;;;;;;;5.07;2.58;;;6.70;94.20;;;;;;4927214;29;20035;-63
2023/04/20 03:26:55;;;;;;;4.65;2.70;;;6.60;94.40;;;;;;4926668;28;20435;-65
2023/04/20 03:29:20;;;;;;;6.15;2.85;;;6.60;94.50;;;;;;4905015;29;20066;-64
2023/04/20 03:31:46;;;;;;;7.35;2.70;;;6.60;94.50;;;;;;4928866;29;20031;-63
2023/04/20 03:34:12;;;;;;;10.30;3.00;;;6.60;94.40;;;;;;4930154;28;20032;-64
2023/04/20 03:36:37;;;;;;;9.45;3.10;;;6.60;94.60;;;;;;4926301;29;20379;-64
2023/04/20 03:39:03;;;;;;;6.20;2.92;;;6.60;94.40;;;;;;4928687;29;20111;-65
2023/04/20 03:41:30;;;;;;;4.55;2.53;;;6.60;94.80;;;;;;4921849;28;20155;-64
2023/04/20 03:43:55;;;;;;;9.25;3.13;;;6.60;94.70;;;;;;4916530;28;20044;-65
2023/04/20 03:46:21;;;;;;;7.00;2.88;;;6.60;94.90;;;;;;4916983;28;20414;-64
2023/04/20 03:48:47;;;;;;;4.57;2.50;;;6.60;94.80;;;;;;4910140;28;20054;-63
2023/04/20 03:51:12;;;;;;;5.28;2.65;;;6.60;95.00;;;;;;4908710;29;20063;-65
2023/04/20 03:53:39;;;;;;;7.10;2.88;;;6.60;95.10;;;;;;4915116;29;20039;-64
2023/04/20 03:56:04;;;;;;;4.40;2.55;;;6.60;95.40;;;;;;4913266;28;20034;-64
2023/04/20 03:58:30;;;;;;;6.55;2.70;;;6.50;96.40;;;;;;4917134;28;20032;-63
2023/04/20 04:01:05;;;;;;;6.90;3.20;;;6.50;96.00;;;;;;4913274;29;20028;-64
2023/04/20 04:03:32;;;;;;;10.63;3.28;;;6.50;96.30;;;;;;4912209;29;20586;-65
2023/04/20 04:05:58;;;;;;;10.27;3.20;;;6.50;96.10;;;;;;4909216;28;20089;-63
2023/04/20 04:08:23;;;;;;;4.53;2.30;;;6.40;96.30;;;;;;4910365;28;20047;-65
2023/04/20 04:10:49;;;;;;;7.60;3.30;;;6.50;96.90;;;;;;4915640;29;20051;-63
2023/04/20 04:13:15;;;;;;;8.63;3.35;;;6.40;96.80;;;;;;4912666;29;20043;-63
2023/04/20 04:15:41;;;;;;;6.45;3.28;;;6.40;97.10;;;;;;4913620;28;20043;-64
2023/04/20 04:18:06;;;;;;;10.35;3.03;;;6.40;96.90;;;;;;4914370;29;20040;-64
2023/04/20 04:20:32;;;;;;;6.53;3.22;;;6.50;96.60;;;;;;4908589;29;20040;-65
2023/04/20 04:22:57;;;;;;;4.93;3.20;;;6.50;96.40;;;;;;4909229;29;20035;-64
2023/04/20 04:25:23;;;;;;;6.97;2.95;;;6.60;96.70;;;;;;4917539;29;20048;-64
2023/04/20 04:27:50;;;;;;;8.07;3.08;;;6.60;96.60;;;;;;4890479;28;20087;-62
2023/04/20 04:30:16;;;;;;;9.25;3.40;;;6.70;97.00;;;;;;4910329;29;20512;-63
2023/04/20 04:32:43;;;;;;;7.60;3.70;;;6.60;97.50;;;;;;4908280;29;20059;-63
2023/04/20 04:35:09;;;;;;;4.63;2.90;;;6.60;97.90;;;;;;4890763;28;20036;-64
2023/04/20 04:37:35;;;;;;;6.55;3.15;;;6.60;97.70;;;;;;4893003;28;20098;-66
2023/04/20 04:40:01;;;;;;;8.13;3.10;;;6.50;97.90;;;;;;4907312;29;21776;-64
2023/04/20 04:42:27;;;;;;;4.85;3.03;;;6.50;99.00;;;;;;4906694;28;20059;-63
2023/04/20 04:44:55;;;;;;;7.03;3.60;;;6.50;99.00;;;;;;4910535;29;20047;-62
2023/04/20 04:47:21;;;;;;;9.55;3.40;;;6.40;99.90;;;;;;4907359;29;20558;-64
2023/04/20 04:49:47;;;;;;;7.70;2.88;;;6.50;99.90;;;;;;4909829;28;20032;-65
2023/04/20 04:52:13;;;;;;;7.95;3.83;;;6.50;99.90;;;;;;4910010;28;20460;-63
2023/04/20 04:54:39;;;;;;;8.27;4.07;;;6.40;99.90;;;;;;4911733;28;20056;-63
2023/04/20 04:57:04;;;;;;;9.75;4.25;;;6.40;99.90;;;;;;4911370;28;20102;-63
2023/04/20 04:59:30;;;;;;;7.72;3.60;;;6.40;99.90;;;;;;4912067;29;20547;-64
2023/04/20 05:01:56;;;;;;;10.18;4.18;;;6.40;99.90;;;;;;4914691;28;20118;-63
2023/04/20 05:04:21;;;;;;;8.95;3.90;;;6.40;99.90;;;;;;4913200;28;20452;-63
2023/04/20 05:06:47;;;;;;;5.95;3.67;;;6.30;99.90;;;;;;4913700;28;20070;-64
2023/04/20 05:09:12;;;;;;;6.20;3.80;;;6.30;99.90;;;;;;4913722;29;20544;-62
2023/04/20 05:11:38;;;;;;;5.55;3.65;;;6.30;99.90;;;;;;4911304;29;20446;-64
2023/04/20 05:14:04;;;;;;;6.80;3.83;;;6.40;99.90;;;;;;4915265;29;20031;-63
2023/04/20 05:16:29;;;;;;;8.50;3.50;;;6.40;99.90;;;;;;4912175;28;20251;-64
2023/04/20 05:18:55;;;;;;;7.00;3.75;;;6.50;99.90;;;;;;4914110;28;20129;-63
2023/04/20 05:21:21;;;;;;;6.85;3.88;;;6.40;99.90;;;;;;4913093;29;21614;-62
2023/04/20 05:23:46;;;;;;;5.75;3.10;;;6.40;99.90;;;;;;4910427;28;20490;-64
2023/04/20 05:26:12;;;;;;;8.48;3.88;;;6.40;99.90;;;;;;4909692;29;20110;-62
2023/04/20 05:28:38;;;;;;;11.38;4.60;;;6.40;99.90;;;;;;4891283;28;20113;-62
2023/04/20 05:31:03;;;;;;;7.35;3.95;;;6.40;99.90;;;;;;4910690;29;20044;-65
2023/04/20 05:33:29;;;;;;;5.45;2.92;;;6.50;99.90;;;;;;4907809;29;21096;-67
2023/04/20 05:35:56;;;;;;;5.40;2.97;;;6.60;99.90;;;;;;4908698;29;20039;-63
2023/04/20 05:38:21;;;;;;;7.07;3.70;;;6.60;99.90;;;;;;4907884;28;20762;-67
2023/04/20 05:40:47;;;;;;;5.22;3.17;;;6.60;99.90;;;;;;4910582;29;20046;-65
2023/04/20 05:43:13;;;;;;;10.57;4.85;;;6.60;99.90;;;;;;4909848;28;20047;-65
2023/04/20 05:45:38;;;;;;;9.48;3.78;;;6.60;99.90;;;;;;4907528;28;20038;-64
2023/04/20 05:48:04;;;;;;;4.85;3.55;;;6.60;99.90;;;;;;4913110;28;20035;-65
2023/04/20 05:50:30;;;;;;;4.97;2.50;;;6.60;99.90;;;;;;4907679;28;20039;-64
2023/04/20 05:52:56;;;;;;;6.20;3.30;;;6.60;99.90;;;;;;4909599;28;20169;-63
2023/04/20 05:55:21;;;;;;;5.40;2.70;;;6.50;99.90;;;;;;4907693;28;20032;-65
2023/04/20 05:57:47;;;;;;;5.95;3.00;;;6.40;99.90;;;;;;4904481;29;20089;-65
2023/04/20 06:00:14;;;;;;;5.05;2.78;;;6.40;99.90;;;;;;4911382;28;20119;-65
2023/04/20 06:02:41;;;;;;;8.00;3.15;;;6.40;99.90;;;;;;4894646;28;20036;-65
2023/04/20 06:05:08;;;;;;;6.00;3.42;;;6.50;99.90;;;;;;4912324;28;20028;-65
2023/04/20 06:07:35;;;;;;;8.05;2.88;;;6.50;99.90;;;;;;4910978;29;20078;-65
2023/04/20 06:10:00;;;;;;;7.05;3.38;;;6.50;99.90;;;;;;4914212;29;20448;-64
2023/04/20 06:12:28;;;;;;;6.95;3.15;;;6.50;99.90;;;;;;4903207;28;20023;-64
2023/04/20 06:14:55;;;;;;;5.75;3.15;;;6.40;99.90;;;;;;4914537;29;20032;-65
2023/04/20 06:17:20;;;;;;;7.10;3.60;;;6.40;99.90;;;;;;4909938;28;20478;-65
2023/04/20 06:19:46;;;;;;;3.85;2.83;;;6.40;99.90;;;;;;4910075;28;20032;-65
2023/04/20 06:22:12;;;;;;;7.13;3.55;;;6.30;99.90;;;;;;4905072;28;20032;-64
2023/04/20 06:24:38;;;;;;;6.07;3.70;;;6.20;99.90;;;;;;4905072;28;20816;-65
2023/04/20 06:27:03;;;;;;;6.53;3.08;;;6.20;99.90;;;;;;4906559;28;20040;-65
2023/04/20 06:29:29;;;;;;;6.55;3.45;;;6.20;99.90;;;;;;4890228;28;20051;-65
2023/04/20 06:31:54;;;;;;;7.13;4.72;;;6.20;99.90;;;;;;4914576;28;20051;-65
2023/04/20 06:34:20;;;;;;;6.38;3.83;;;6.30;99.90;;;;;;4911108;29;20852;-65
2023/04/20 06:36:45;;;;;;;4.80;3.17;;;6.30;99.90;;;;;;4915101;29;20019;-64
2023/04/20 06:39:11;;;;;;;5.25;3.63;;;6.30;99.90;;;;;;4914322;28;20085;-64
2023/04/20 06:41:37;;;;;;;8.35;3.58;;;6.20;99.90;;;;;;4912369;29;20107;-65
2023/04/20 06:44:04;;;;;;;5.55;3.50;;;6.20;99.90;;;;;;4911595;29;20043;-65
2023/04/20 06:46:29;;;;;;;8.70;3.35;;;6.30;99.90;;;;;;4911416;28;20040;-65
2023/04/20 06:48:55;;;;;;;6.75;3.20;;;6.40;99.90;;;;;;4914824;29;20401;-64
2023/04/20 06:51:21;;;;;;;13.90;4.30;;;6.60;99.90;;;;;;4911975;29;20027;-65
2023/04/20 06:53:46;;;;;;;6.38;4.10;;;6.60;99.90;;;;;;4910801;29;20036;-65
2023/04/20 06:56:12;;;;;;;7.78;4.20;;;6.60;99.90;;;;;;4908019;28;20733;-64
2023/04/20 06:58:37;;;;;;;5.95;3.58;;;6.60;99.90;;;;;;4913354;29;20036;-65
2023/04/20 07:01:03;;;;;;;6.50;4.45;;;6.60;99.90;;;;;;4917783;28;21793;-63
2023/04/20 07:03:29;;;;;;;6.45;4.15;;;6.70;99.90;;;;;;4916327;28;20123;-66
2023/04/20 07:05:55;;;;;;;10.80;3.80;;;6.80;99.90;;;;;;4914390;28;20378;-65
2023/04/20 07:08:20;;;;;;;5.60;3.75;;;6.90;99.90;;;;;;4916828;28;20051;-64
2023/04/20 07:10:46;;;;;;;5.13;3.42;;;7.00;99.90;;;;;;4921033;28;20031;-65
2023/04/20 07:13:11;;;;;;;6.07;3.97;;;7.20;99.90;;;;;;4918426;28;20071;-63
2023/04/20 07:15:37;;;;;;;4.43;3.40;;;7.30;99.90;;;;;;4922294;28;20087;-65
2023/04/20 07:18:03;;;;;;;3.95;3.08;;;7.40;99.90;;;;;;4930053;28;20460;-64
2023/04/20 07:20:30;;;;;;;6.53;3.50;;;7.60;99.90;;;;;;4933051;28;20036;-64
2023/04/20 07:22:55;;;;;;;4.55;3.08;;;7.70;99.90;;;;;;4926948;28;20485;-66
2023/04/20 07:25:22;;;;;;;4.38;3.08;;;7.90;99.90;;;;;;4929755;28;20050;-65
2023/04/20 07:27:47;;;;;;;3.47;2.50;;;7.90;99.90;;;;;;4928172;28;20032;-65
2023/04/20 07:30:13;;;;;;;3.50;2.45;;;7.90;99.90;;;;;;4908983;28;20141;-65
2023/04/20 07:32:40;;;;;;;4.80;2.65;;;8.00;99.90;;;;;;4931374;28;20544;-66
2023/04/20 07:35:07;;;;;;;6.13;3.13;;;7.90;99.90;;;;;;4930117;28;20028;-65
2023/04/20 07:37:33;;;;;;;3.28;2.40;;;7.90;99.90;;;;;;4930455;28;20122;-63
2023/04/20 07:39:58;;;;;;;13.25;3.22;;;7.90;99.90;;;;;;4930250;28;20036;-65
2023/04/20 07:42:24;;;;;;;4.55;2.67;;;7.90;99.90;;;;;;4931939;28;20046;-65
2023/04/20 07:44:50;;;;;;;2.83;1.90;;;7.80;99.90;;;;;;4915592;28;20115;-64
2023/04/20 07:47:16;;;;;;;3.67;2.20;;;8.00;99.90;;;;;;4916630;28;20074;-66
2023/04/20 07:49:42;;;;;;;4.35;2.65;;;8.10;99.90;;;;;;4932152;28;20074;-65
2023/04/20 07:52:08;;;;;;;5.20;2.70;;;8.10;99.90;;;;;;4932103;28;20096;-65
2023/04/20 07:54:34;;;;;;;4.80;1.70;;;8.00;99.90;;;;;;4930714;28;20166;-66
2023/04/20 07:57:02;;;;;;;8.65;3.97;;;8.10;99.90;;;;;;4927646;28;20028;-66
2023/04/20 07:59:28;;;;;;;5.00;2.90;;;8.10;99.90;;;;;;4930508;28;20028;-66
2023/04/20 08:02:01;;;;;;;17.35;7.22;;;8.20;99.90;;;;;;4923579;28;20154;-65
2023/04/20 08:04:27;;;;;;;6.80;3.83;;;8.10;99.90;;;;;;4926393;28;20370;-65
2023/04/20 08:06:53;;;;;;;4.97;2.40;;;8.10;99.90;;;;;;4932478;29;20042;-65
2023/04/20 08:09:19;;;;;;;8.65;4.07;;;8.10;99.90;;;;;;4929840;28;20386;-65
2023/04/20 08:11:45;;;;;;;7.80;3.60;;;8.30;99.90;;;;;;4928654;29;20030;-65
2023/04/20 08:14:11;;;;;;;4.35;2.33;;;8.30;99.90;;;;;;4925446;29;20024;-66
2023/04/20 08:16:37;;;;;;;1.98;1.60;;;8.40;99.90;;;;;;4929925;29;20027;-66
2023/04/20 08:19:08;;;;;;;3.10;2.15;;;8.70;99.90;;;;;;4940311;28;20384;-65
2023/04/20 08:21:35;;;;;;;3.63;2.10;;;8.60;99.90;;;;;;4927977;28;20032;-65
2023/04/20 08:24:00;;;;;;;2.13;1.63;;;8.50;99.90;;;;;;4925845;28;20035;-65
2023/04/20 08:26:26;;;;;;;7.53;3.40;;;8.60;99.90;;;;;;4929362;28;20028;-66
2023/04/20 08:28:52;;;;;;;12.18;4.47;;;8.60;99.90;;;;;;4927113;29;20043;-66
2023/04/20 08:31:17;;;;;;;2.05;1.35;;;8.60;99.90;;;;;;4914404;28;20039;-66
2023/04/20 08:33:43;;;;;;;4.93;2.55;;;8.80;99.90;;;;;;4933205;29;20043;-65
2023/04/20 08:36:09;;;;;;;1.70;1.30;;;9.10;99.90;;;;;;4944301;28;20026;-66
2023/04/20 08:38:35;;;;;;;2.05;1.30;;;9.30;99.90;;;;;;4940885;28;20023;-66
2023/04/20 08:41:01;;;;;;;1.80;1.20;;;9.30;99.90;;;;;;4925972;28;20126;-66
2023/04/20 08:43:26;;;;;;;1.90;1.35;;;9.30;99.90;;;;;;4931753;28;20028;-66
2023/04/20 08:45:56;;;;;;;3.75;1.27;;;9.10;99.90;;;;;;4931383;28;20105;-66
2023/04/20 08:48:23;;;;;;;4.72;1.38;;;8.80;99.90;;;;;;4927576;29;20024;-65
2023/04/20 08:50:49;;;;;;;3.10;1.33;;;8.70;99.90;;;;;;4936596;28;20081;-66
2023/04/20 08:53:15;;;;;;;1.33;0.80;;;8.60;99.90;;;;;;4941037;28;20028;-66
2023/04/20 08:55:40;;;;;;;1.58;1.30;;;8.80;99.90;;;;;;4917404;28;20087;-65
2023/04/20 08:58:06;;;;;;;1.00;0.88;;;8.90;99.90;;;;;;4925009;29;20093;-66
2023/04/20 09:00:32;;;;;;;1.30;0.80;;;9.30;99.90;;;;;;4924126;28;20509;-67
2023/04/20 09:02:59;;;;;;;1.65;1.38;;;9.50;99.90;;;;;;4925041;28;20050;-65
2023/04/20 09:05:27;;;;;;;0.80;0.70;;;10.30;99.90;;;;;;4929739;29;20033;-65
2023/04/20 09:07:57;;;;;;;0.60;0.60;;;11.70;99.90;;;;;;4914472;29;20031;-66
2023/04/20 09:10:23;;;;;;;2.60;0.82;;;12.80;99.90;;;;;;4930630;28;20039;-67
2023/04/20 09:12:50;;;;;;;1.00;0.70;;;13.30;99.90;;;;;;4931378;28;20036;-66
2023/04/20 09:15:29;;;;;;;0.90;0.60;;;12.90;98.80;;;;;;4932357;28;20077;-66
2023/04/20 09:17:55;;;;;;;0.60;0.47;;;12.10;99.90;;;;;;4938101;28;20036;-67
2023/04/20 09:20:32;;;;;;;0.70;0.50;;;11.40;99.90;;;;;;4931807;28;20058;-65
2023/04/20 09:23:09;;;;;;;0.60;0.35;;;10.50;99.90;;;;;;4929773;28;20036;-66
2023/04/20 09:25:35;;;;;;;0.55;0.35;;;10.10;99.90;;;;;;4932201;29;20040;-67
2023/04/20 09:28:01;;;;;;;0.50;0.30;;;10.00;99.90;;;;;;4929954;28;20020;-66
2023/04/20 09:30:41;;;;;;;0.73;0.45;;;10.40;99.90;;;;;;4911676;28;20063;-66
2023/04/20 09:33:09;;;;;;;0.82;0.47;;;10.80;99.90;;;;;;4934502;28;20456;-66
2023/04/20 09:35:37;;;;;;;4.88;0.82;;;10.60;99.90;;;;;;4933089;29;20051;-67
2023/04/20 09:38:03;;;;;;;0.65;0.50;;;11.00;99.90;;;;;;4938822;28;20035;-66
2023/04/20 09:40:29;;;;;;;0.40;0.40;;;11.30;99.90;;;;;;4927910;28;20043;-66
2023/04/20 09:43:01;;;;;;;0.60;0.60;;;11.20;99.90;;;;;;4932689;29;20453;-67
2023/04/20 09:45:28;;;;;;;0.77;0.45;;;11.80;99.90;;;;;;4945383;29;20038;-66
2023/04/20 09:47:54;;;;;;;0.68;0.50;;;12.20;99.50;;;;;;4936643;29;20030;-67
2023/04/20 09:50:20;;;;;;;0.52;0.50;;;12.30;99.50;;;;;;4938187;29;20068;-66
2023/04/20 09:52:48;;;;;;;1.58;0.47;;;12.00;97.10;;;;;;4940513;29;20028;-66
2023/04/20 09:55:14;;;;;;;0.40;0.28;;;12.00;99.10;;;;;;4940478;29;20249;-67
2023/04/20 09:57:40;;;;;;;0.63;0.38;;;11.90;98.80;;;;;;4929297;29;20073;-67
2023/04/20 10:00:09;;;;;;;0.30;0.30;;;11.50;99.30;;;;;;4933751;29;20032;-64
2023/04/20 10:02:35;;;;;;;0.65;0.40;;;11.40;99.90;;;;;;4927676;28;20093;-67
2023/04/20 10:05:02;;;;;;;0.30;0.30;;;11.50;99.90;;;;;;4937088;28;20504;-67
2023/04/20 10:07:30;;;;;;;0.20;0.20;;;11.70;99.90;;;;;;4926978;29;20024;-67
2023/04/20 10:10:11;;;;;;;2.65;0.32;;;11.60;98.30;;;;;;4926968;29;20088;-66
2023/04/20 10:12:57;;;;;;;0.35;0.35;;;11.50;99.80;;;;;;4935013;29;20193;-65
2023/04/20 10:15:26;;;;;;;0.20;0.20;;;11.60;99.10;;;;;;4931621;28;20023;-67
2023/04/20 10:17:52;;;;;;;0.30;0.30;;;11.70;99.90;;;;;;4936257;29;20406;-66
2023/04/20 10:20:23;;;;;;;0.28;0.20;;;12.10;99.30;;;;;;4936050;29;20366;-66
2023/04/20 10:22:51;;;;;;;0.47;0.30;;;12.40;99.10;;;;;;4929002;29;20031;-67
2023/04/20 10:25:19;;;;;;;0.30;0.30;;;12.50;96.70;;;;;;4928795;29;20114;-66
2023/04/20 10:27:56;;;;;;;0.30;0.20;;;12.40;97.20;;;;;;4928978;29;20057;-66
2023/04/20 10:30:23;;;;;;;0.10;0.10;;;12.30;96.60;;;;;;4906556;28;20402;-66
2023/04/20 10:33:00;;;;;;;0.20;0.20;;;12.10;96.30;;;;;;4920577;28;20044;-66
2023/04/20 10:35:26;;;;;;;0.40;0.40;;;11.40;96.90;;;;;;4928600;29;20024;-67
2023/04/20 10:37:52;;;;;;;0.47;0.28;;;11.20;97.00;;;;;;4917015;28;20035;-65
2023/04/20 10:40:27;;;;;;;0.17;0.10;;;11.10;98.40;;;;;;4927967;29;20036;-66
2023/04/20 10:42:53;;;;;;;1.40;0.30;;;10.90;98.90;;;;;;4928966;29;20123;-66
2023/04/20 10:45:20;;;;;;;0.40;0.40;;;10.60;99.90;;;;;;4926080;29;20103;-66
2023/04/20 10:47:45;;;;;;;0.40;0.40;;;10.70;99.80;;;;;;4908938;28;20479;-66
2023/04/20 10:50:13;;;;;;;0.95;0.35;;;11.10;99.70;;;;;;4927741;28;20123;-66
2023/04/20 10:52:40;;;;;;;0.50;0.50;;;11.60;98.10;;;;;;4926248;29;20024;-67
2023/04/20 10:55:20;;;;;;;2.08;0.60;;;11.80;99.30;;;;;;4932638;28;20078;-66
2023/04/20 10:57:46;;;;;;;0.55;0.50;;;11.90;99.40;;;;;;4927703;29;20028;-65
2023/04/20 11:00:19;;;;;;;0.60;0.52;;;11.80;97.30;;;;;;4929388;29;20535;-67
2023/04/20 11:02:49;;;;;;;0.35;0.32;;;11.50;98.60;;;;;;4935502;28;20035;-66
2023/04/20 11:05:19;;;;;;;0.93;0.60;;;11.40;98.60;;;;;;4921870;28;20113;-66
2023/04/20 11:07:50;;;;;;;0.77;0.43;;;11.00;99.50;;;;;;4925256;29;20123;-66
2023/04/20 11:10:16;;;;;;;0.68;0.50;;;10.80;99.90;;;;;;4911590;28;20116;-66
2023/04/20 11:12:42;;;;;;;1.50;1.00;;;10.80;99.90;;;;;;4939435;29;20114;-67
2023/04/20 11:15:08;;;;;;;1.58;1.02;;;10.80;99.50;;;;;;4921252;28;20035;-67
2023/04/20 11:17:40;;;;;;;1.92;1.05;;;10.90;98.80;;;;;;4934917;28;20036;-66
2023/04/20 11:20:11;;;;;;;2.95;1.10;;;11.20;99.70;;;;;;4922094;29;20434;-66
2023/04/20 11:22:38;;;;;;;2.95;1.15;;;11.70;99.00;;;;;;4928345;28;20027;-67
2023/04/20 11:25:08;;;;;;;3.33;1.73;;;12.00;98.20;;;;;;4929802;28;20043;-66
2023/04/20 11:27:34;;;;;;;1.67;1.10;;;12.00;97.40;;;;;;4924966;28;20498;-66
2023/04/20 11:30:04;;;;;;;2.53;1.48;;;12.00;96.90;;;;;;4926220;29;20036;-67
2023/04/20 11:32:31;;;;;;;3.05;1.75;;;11.70;97.60;;;;;;4907737;28;20048;-65
2023/04/20 11:35:06;;;;;;;1.63;1.20;;;11.40;96.60;;;;;;4912201;28;20028;-68
2023/04/20 11:37:33;;;;;;;4.95;1.65;;;11.50;98.50;;;;;;4924926;28;20035;-65
2023/04/20 11:40:00;;;;;;;2.40;1.42;;;11.60;98.00;;;;;;4929203;29;20401;-64
2023/04/20 11:42:27;;;;;;;1.85;1.30;;;11.80;97.30;;;;;;4934082;28;20028;-66
2023/04/20 11:44:52;;;;;;;2.63;1.67;;;12.00;96.80;;;;;;4929524;29;20047;-65
2023/04/20 11:47:18;;;;;;;3.00;1.90;;;12.00;96.40;;;;;;4930942;29;20027;-67
2023/04/20 11:49:43;;;;;;;4.57;1.42;;;12.00;96.50;;;;;;4931789;29;20035;-64
2023/04/20 11:52:09;;;;;;;2.00;1.45;;;12.00;96.40;;;;;;4937512;28;20416;-65
2023/04/20 11:54:34;;;;;;;2.65;1.65;;;12.10;97.40;;;;;;4938735;29;20038;-65
2023/04/20 11:57:01;;;;;;;2.33;1.50;;;12.50;97.00;;;;;;4931258;29;20035;-66
2023/04/20 11:59:26;;;;;;;2.70;2.05;;;12.40;95.80;;;;;;4933943;29;20385;-65
2023/04/20 12:01:52;;;;;;;3.40;2.05;;;12.50;96.10;;;;;;4945053;28;20024;-64
2023/04/20 12:04:18;;;;;;;4.25;2.40;;;12.70;95.60;;;;;;4931626;29;20032;-66
2023/04/20 12:06:43;;;;;;;2.70;2.17;;;12.90;95.70;;;;;;4931538;29;20115;-65
2023/04/20 12:09:09;;;;;;;7.32;2.30;;;12.70;94.90;;;;;;4924031;28;20043;-65
2023/04/20 12:11:35;;;;;;;3.60;2.60;;;12.80;94.50;;;;;;4936840;29;20035;-66
2023/04/20 12:14:01;;;;;;;6.05;2.67;;;12.60;94.40;;;;;;4930055;28;22200;-65
2023/04/20 12:16:26;;;;;;;4.80;2.70;;;12.60;95.30;;;;;;4931955;29;20020;-65
2023/04/20 12:18:52;;;;;;;4.90;2.83;;;12.70;95.20;;;;;;4939130;29;20044;-65
2023/04/20 12:21:17;;;;;;;8.27;3.35;;;12.50;94.80;;;;;;4939946;29;20169;-65
2023/04/20 12:23:43;;;;;;;7.57;3.10;;;12.30;95.20;;;;;;4929992;29;20032;-65
2023/04/20 12:26:09;;;;;;;4.47;2.45;;;12.50;95.00;;;;;;4927744;29;20063;-66
2023/04/20 12:28:34;;;;;;;4.63;2.78;;;12.40;95.00;;;;;;4934968;29;20045;-65
2023/04/20 12:31:01;;;;;;;4.35;2.95;;;12.30;95.30;;;;;;4940583;28;20032;-65
2023/04/20 12:33:26;;;;;;;3.78;2.88;;;12.20;94.80;;;;;;4912287;28;20402;-65
2023/04/20 12:35:52;;;;;;;5.07;2.97;;;12.30;95.70;;;;;;4919270;28;20042;-65
2023/04/20 12:38:18;;;;;;;6.25;2.80;;;12.40;96.10;;;;;;4932735;29;20028;-66
2023/04/20 12:40:43;;;;;;;3.88;3.10;;;12.30;95.00;;;;;;4928620;29;20048;-66
2023/04/20 12:43:09;;;;;;;5.15;2.33;;;12.10;95.00;;;;;;4929102;29;20028;-65
2023/04/20 12:45:35;;;;;;;5.50;2.65;;;11.90;96.10;;;;;;4930328;29;20090;-66
2023/04/20 12:48:00;;;;;;;4.97;3.05;;;11.70;94.90;;;;;;4933600;29;20030;-66